CST,Max TemperatureF,Mean TemperatureF,Min TemperatureF,Max Dew PointF,MeanDew PointF,Min DewpointF,Max Humidity, Mean Humidity, Min Humidity, Max Sea Level PressureIn, Mean Sea Level PressureIn, Min Sea Level PressureIn, Max VisibilityMiles, Mean VisibilityMiles, Min VisibilityMiles, Max Wind SpeedMPH, Mean Wind SpeedMPH, Max Gust SpeedMPH,PrecipitationIn, CloudCover, Events, WindDirDegrees
2013-1-1,15,9,3,3,1,0,85,70,57,30.22,30.16,30.12,10,10,10,12,7,16,0.00,0,,290
2013-1-2,26,18,10,21,12,1,80,71,51,30.15,30.10,30.04,10,10,7,12,7,,0.00,7,Snow,221
2013-1-3,26,20,15,21,17,10,86,78,74,30.20,30.11,30.03,10,8,4,17,10,25,0.00,5,Snow,261
2013-1-4,28,21,14,18,14,7,86,72,59,30.18,30.13,30.05,10,10,10,20,13,29,0.00,0,,252
2013-1-5,35,24,14,32,24,12,100,86,69,30.21,30.05,29.87,10,8,2,16,7,22,0.01,4,Rain-Snow,226
2013-1-6,33,26,19,32,24,16,93,83,69,30.28,30.04,29.86,10,9,5,18,10,24,0.00,5,Snow,263
2013-1-7,37,27,17,27,19,12,86,76,52,30.28,30.15,30.03,10,9,7,21,8,31,0.00,0,,213
2013-1-8,39,32,24,30,27,23,93,78,61,30.11,30.04,29.93,10,8,5,17,8,24,0.00,1,,206
2013-1-9,39,34,28,30,26,21,87,70,52,30.44,30.17,29.91,10,10,10,30,15,39,0.00,0,,258
2013-1-10,39,30,21,36,28,19,100,85,69,30.50,30.28,29.90,10,8,2,12,5,21,0.25,3,Rain,129
2013-1-11,51,42,35,45,40,36,100,91,76,29.90,29.72,29.63,10,5,0,16,7,28,0.12,6,Rain,174
2013-1-12,51,38,26,45,32,21,86,72,60,30.00,29.80,29.63,10,9,4,25,16,32,0.00,3,Snow,242
2013-1-13,26,20,14,23,14,5,86,77,67,30.18,30.01,29.89,10,9,3,21,10,28,0.00,8,Snow,298
2013-1-14,24,17,10,10,7,3,79,68,43,30.42,30.35,30.19,10,10,10,17,10,23,0.00,0,,261
2013-1-15,30,21,12,14,12,9,86,73,44,30.41,30.28,30.08,10,10,10,10,3,,0.00,0,,214
2013-1-16,33,26,19,28,18,9,87,73,48,30.08,29.95,29.74,10,10,10,22,9,37,0.00,3,,247
2013-1-17,28,21,14,19,9,0,73,61,39,30.39,30.25,30.05,10,10,10,16,9,21,0.00,0,,300
2013-1-18,41,26,12,30,18,7,79,70,56,30.41,30.12,29.81,10,10,7,25,6,39,0.00,2,Snow,202
2013-1-19,42,32,17,32,25,3,81,65,38,29.88,29.77,29.64,10,10,10,36,14,50,0.00,4,,248
2013-1-20,15,10,6,3,-2,-6,67,57,38,30.28,30.15,29.91,10,10,10,29,19,43,0.00,3,,287
2013-1-21,35,16,-4,28,-6,-13,79,61,47,30.25,30.16,29.89,10,10,2,22,10,28,0.00,5,Snow,295
2013-1-22,6,0,-7,-6,-12,-17,66,60,47,30.33,30.29,30.25,10,10,7,15,11,24,0.00,1,,287
2013-1-23,17,10,3,12,1,-6,86,68,57,30.36,30.22,30.06,10,8,2,24,8,33,0.00,6,Snow,278
2013-1-24,19,10,1,9,0,-8,67,62,53,30.63,30.47,30.36,10,10,10,18,9,22,0.00,3,,301
2013-1-25,23,20,17,19,11,5,93,71,54,30.33,30.13,29.94,10,8,2,15,8,21,0.00,7,Snow,231
2013-1-26,26,16,8,12,8,3,85,67,46,30.37,30.30,30.16,10,10,10,13,8,16,0.00,2,,261
2013-1-27,32,28,24,32,23,12,100,79,59,30.35,30.16,29.88,10,7,0,17,8,24,0.00,7,Snow,161
2013-1-28,42,37,32,37,32,30,100,91,65,29.96,29.86,29.77,10,6,0,10,4,,0.09,6,Fog-Rain,145
2013-1-29,59,47,35,55,40,34,100,96,87,29.82,29.60,29.45,10,4,0,14,6,23,0.80,8,Fog-Rain,10
2013-1-30,35,26,17,34,25,10,100,88,73,29.56,29.41,29.26,10,7,0,21,13,30,0.10,8,Rain-Snow,340
2013-1-31,17,10,3,10,4,-4,79,70,57,30.10,29.81,29.57,10,9,2,24,16,32,0.00,7,Snow,286